Madison, Florida
Current Conditions -  °F | °C
As of 10:53 PM on Sunday 25 Jan 2015 (Local Time) from KVLD Reporting Station
Broken Clouds Broken Clouds  
Wind Chill: 51°   Ceiling: 6500
Heat Index: 51°   Visibility: 10mi
Dew Point: 47°   Wind: 8mph
Humidity: 86%   Direction: 190°S
Pressure: 29.87"   Gusts: NA
Location:  30.47°N, 83.42°W
Report Text: KVLD 260353Z AUTO 19007KT 10SM FEW037 BKN065 11/08 A2987 RMK AO2 SLP123 T01060083 TSNO
Loading
Personal Weather Stations






























Interactive Weather Map New forecast layout! Learn more

10-Day Weather Forecast

Advertisements
Track Severe Weather on mobile